Time;durP1;ratioP1;P1;durP2;ratioP2;P2;SDS_P1;SDS_P2;PMS_P1;PMS_P2;Temp;Humidity;BMP_temperature;BMP_pressure;BME280_temperature;BME280_humidity;BME280_pressure;Samples;Min_cycle;Max_cycle;Signal;HPM_P1;HPM_P2
2023/07/02 00:00:30;;;;;;;1.93;1.83;;;18.00;99.90;;;;;;5058548;28;20198;-60
2023/07/02 00:02:56;;;;;;;2.23;2.10;;;18.00;99.90;;;;;;5055996;28;20190;-60
2023/07/02 00:05:21;;;;;;;1.97;1.80;;;17.90;99.90;;;;;;5058406;28;20215;-59
2023/07/02 00:07:47;;;;;;;3.80;2.13;;;18.00;99.90;;;;;;5059228;28;20217;-60
2023/07/02 00:10:12;;;;;;;3.00;2.10;;;18.00;99.90;;;;;;5056959;28;20210;-62
2023/07/02 00:12:37;;;;;;;2.30;2.20;;;18.00;99.90;;;;;;5058521;28;20236;-60
2023/07/02 00:15:04;;;;;;;2.20;2.07;;;18.00;99.90;;;;;;5062179;28;20214;-62
2023/07/02 00:17:29;;;;;;;2.93;1.90;;;17.90;99.90;;;;;;5056188;28;20201;-62
2023/07/02 00:19:55;;;;;;;2.10;1.87;;;18.00;99.90;;;;;;5053924;28;20182;-62
2023/07/02 00:22:20;;;;;;;1.77;1.67;;;18.00;99.90;;;;;;5058200;28;20202;-62
2023/07/02 00:24:46;;;;;;;2.77;2.47;;;17.90;99.90;;;;;;5057501;28;20542;-62
2023/07/02 00:27:12;;;;;;;2.07;1.97;;;17.90;99.90;;;;;;5058671;28;20258;-62
2023/07/02 00:29:37;;;;;;;4.37;2.30;;;17.90;99.90;;;;;;5055505;28;20225;-61
2023/07/02 00:32:03;;;;;;;2.30;2.10;;;18.00;99.90;;;;;;5057819;28;20591;-61
2023/07/02 00:34:29;;;;;;;3.03;2.83;;;17.90;99.90;;;;;;5057761;28;20214;-60
2023/07/02 00:36:54;;;;;;;3.27;2.07;;;18.00;99.90;;;;;;5058067;28;20202;-61
2023/07/02 00:39:20;;;;;;;2.93;2.17;;;18.00;99.90;;;;;;5057680;28;20866;-61
2023/07/02 00:41:49;;;;;;;3.00;2.80;;;17.80;99.90;;;;;;5056777;28;20685;-61
2023/07/02 00:44:14;;;;;;;2.50;2.30;;;17.70;99.90;;;;;;5058164;28;20294;-62
2023/07/02 00:46:40;;;;;;;3.20;2.43;;;17.70;99.90;;;;;;5057942;28;20673;-61
2023/07/02 00:49:07;;;;;;;3.23;3.00;;;17.70;99.90;;;;;;5058004;28;20194;-61
2023/07/02 00:51:33;;;;;;;2.67;2.50;;;17.70;99.90;;;;;;5057786;28;20213;-62
2023/07/02 00:53:59;;;;;;;4.53;3.13;;;17.70;99.90;;;;;;5055134;28;20214;-63
2023/07/02 00:56:26;;;;;;;3.37;3.17;;;17.70;99.90;;;;;;5057836;28;20218;-62
2023/07/02 00:58:54;;;;;;;3.37;3.10;;;17.70;99.90;;;;;;5059891;28;20257;-62
2023/07/02 01:01:28;;;;;;;3.67;3.37;;;17.70;99.90;;;;;;5055220;28;20205;-62
2023/07/02 01:03:59;;;;;;;3.53;3.33;;;17.60;99.90;;;;;;5051475;28;20198;-62
2023/07/02 01:06:28;;;;;;;4.10;3.80;;;17.60;99.90;;;;;;5057055;28;20908;-62
2023/07/02 01:08:56;;;;;;;4.60;4.30;;;17.60;99.90;;;;;;5057746;28;20285;-62
2023/07/02 01:11:28;;;;;;;4.43;4.07;;;17.70;99.90;;;;;;5056467;28;20202;-62
2023/07/02 01:13:59;;;;;;;5.03;4.63;;;17.60;99.90;;;;;;5057650;28;20214;-62
2023/07/02 01:16:25;;;;;;;4.97;4.67;;;17.50;99.90;;;;;;5055990;28;20223;-62
2023/07/02 01:18:54;;;;;;;5.43;4.93;;;17.60;99.90;;;;;;5052694;28;20194;-61
2023/07/02 01:21:20;;;;;;;5.07;4.67;;;17.60;99.90;;;;;;5055595;28;20202;-62
2023/07/02 01:23:46;;;;;;;4.90;4.50;;;17.60;99.90;;;;;;5057579;28;20216;-63
2023/07/02 01:26:12;;;;;;;5.40;5.00;;;17.60;99.90;;;;;;5057678;28;20206;-62
2023/07/02 01:28:38;;;;;;;6.77;5.37;;;17.60;99.90;;;;;;5057377;28;20198;-62
2023/07/02 01:31:05;;;;;;;5.93;5.40;;;17.60;99.90;;;;;;5055420;28;20218;-62
2023/07/02 01:33:30;;;;;;;5.40;4.87;;;17.60;99.90;;;;;;5057080;28;20219;-62
2023/07/02 01:35:56;;;;;;;5.27;4.77;;;17.50;99.90;;;;;;5060055;28;20781;-62
2023/07/02 01:38:22;;;;;;;5.23;4.90;;;17.60;99.90;;;;;;5053956;28;20354;-62
2023/07/02 01:40:47;;;;;;;5.47;4.93;;;17.50;99.90;;;;;;5056789;28;20222;-62
2023/07/02 01:43:13;;;;;;;5.20;4.83;;;17.60;99.90;;;;;;5055656;28;20210;-61
2023/07/02 01:45:41;;;;;;;5.40;4.93;;;17.60;99.90;;;;;;5057250;28;20647;-62
2023/07/02 01:48:07;;;;;;;6.10;5.50;;;17.70;99.90;;;;;;5057107;28;20198;-62
2023/07/02 01:50:33;;;;;;;5.73;5.17;;;17.60;99.90;;;;;;5055324;28;20202;-62
2023/07/02 01:52:59;;;;;;;6.73;5.57;;;17.60;99.90;;;;;;5057627;28;20530;-62
2023/07/02 01:55:24;;;;;;;5.90;5.40;;;17.50;99.90;;;;;;5055227;28;20252;-62
2023/07/02 01:57:50;;;;;;;6.40;5.77;;;17.50;99.90;;;;;;5057093;28;20567;-62
2023/07/02 02:00:16;;;;;;;8.17;7.23;;;17.50;99.90;;;;;;5057289;28;20203;-63
2023/07/02 02:02:43;;;;;;;7.33;6.57;;;17.60;99.90;;;;;;5057293;28;20205;-62
2023/07/02 02:05:09;;;;;;;8.30;6.70;;;17.60;99.90;;;;;;5057094;28;20202;-62
2023/07/02 02:07:36;;;;;;;7.73;6.60;;;17.50;99.90;;;;;;5056249;28;20198;-63
2023/07/02 02:10:02;;;;;;;7.10;6.47;;;17.40;99.90;;;;;;5060271;28;20213;-65
2023/07/02 02:12:30;;;;;;;6.90;6.40;;;17.30;99.90;;;;;;5053131;28;20363;-64
2023/07/02 02:14:55;;;;;;;6.60;6.10;;;17.40;99.90;;;;;;5057304;28;20222;-64
2023/07/02 02:17:21;;;;;;;6.10;5.60;;;17.40;99.90;;;;;;5057461;28;20221;-63
2023/07/02 02:19:46;;;;;;;7.03;6.40;;;17.30;99.90;;;;;;5054587;28;20758;-66
2023/07/02 02:22:12;;;;;;;7.20;6.60;;;17.30;99.90;;;;;;5063480;28;20206;-61
2023/07/02 02:24:37;;;;;;;6.77;6.27;;;17.30;99.90;;;;;;5064930;28;20676;-62
2023/07/02 02:27:03;;;;;;;7.40;6.53;;;17.30;99.90;;;;;;5058008;28;20218;-62
2023/07/02 02:29:28;;;;;;;6.83;5.87;;;17.30;99.90;;;;;;5056104;28;20699;-61
2023/07/02 02:31:54;;;;;;;6.53;5.97;;;17.40;99.90;;;;;;5064584;28;20280;-63
2023/07/02 02:34:19;;;;;;;6.27;5.53;;;17.20;99.90;;;;;;5064035;28;20209;-62
2023/07/02 02:36:46;;;;;;;5.50;5.10;;;17.30;99.90;;;;;;5055534;28;20241;-61
2023/07/02 02:39:12;;;;;;;7.40;6.50;;;17.40;99.90;;;;;;5058940;28;20309;-62
2023/07/02 02:41:37;;;;;;;5.83;5.10;;;17.40;99.90;;;;;;5055898;28;20320;-61
2023/07/02 02:44:03;;;;;;;6.23;5.73;;;17.50;99.90;;;;;;5058702;28;20694;-61
2023/07/02 02:46:28;;;;;;;8.30;4.60;;;17.50;99.90;;;;;;5058799;28;20286;-62
2023/07/02 02:48:54;;;;;;;7.53;4.90;;;17.50;99.90;;;;;;5061619;28;20232;-62
2023/07/02 02:51:20;;;;;;;5.00;4.60;;;17.30;99.90;;;;;;5056184;28;20222;-63
2023/07/02 02:53:46;;;;;;;5.33;4.37;;;17.30;99.90;;;;;;5054775;28;20218;-62
2023/07/02 02:56:11;;;;;;;6.90;5.17;;;17.40;99.90;;;;;;5057717;28;20202;-63
2023/07/02 02:58:37;;;;;;;10.23;5.50;;;17.40;99.90;;;;;;5059534;28;20211;-62
2023/07/02 03:01:10;;;;;;;4.30;4.00;;;17.50;99.90;;;;;;5059434;28;20206;-62
2023/07/02 03:03:39;;;;;;;6.77;4.93;;;17.40;99.90;;;;;;5059385;28;20247;-62
2023/07/02 03:06:05;;;;;;;6.90;5.70;;;17.40;99.90;;;;;;5057616;28;20190;-62
2023/07/02 03:08:31;;;;;;;5.63;5.00;;;17.40;99.90;;;;;;5059081;28;20221;-62
2023/07/02 03:10:57;;;;;;;7.50;5.37;;;17.40;99.90;;;;;;5059086;28;20190;-62
2023/07/02 03:13:22;;;;;;;5.23;4.77;;;17.30;99.90;;;;;;5056999;28;20207;-62
2023/07/02 03:15:48;;;;;;;9.27;5.20;;;17.30;99.90;;;;;;5059072;28;20236;-62
2023/07/02 03:18:13;;;;;;;4.87;4.47;;;17.30;99.90;;;;;;5054397;28;20201;-62
2023/07/02 03:20:39;;;;;;;5.43;4.93;;;17.10;99.90;;;;;;5058880;28;20206;-62
2023/07/02 03:23:05;;;;;;;5.87;5.40;;;17.00;99.90;;;;;;5060896;28;20201;-62
2023/07/02 03:25:30;;;;;;;5.93;5.33;;;17.20;99.90;;;;;;5056486;28;20285;-62
2023/07/02 03:27:56;;;;;;;6.07;5.47;;;17.10;99.90;;;;;;5049675;28;20198;-62
2023/07/02 03:30:21;;;;;;;7.97;5.97;;;17.10;99.90;;;;;;5058708;28;20665;-62
2023/07/02 03:32:47;;;;;;;6.13;4.50;;;17.10;99.90;;;;;;5058530;28;20244;-62
2023/07/02 03:35:13;;;;;;;5.17;4.50;;;17.10;99.90;;;;;;5059150;28;20222;-63
2023/07/02 03:37:41;;;;;;;4.63;3.90;;;17.20;99.90;;;;;;5058894;28;21087;-62
2023/07/02 03:40:07;;;;;;;5.50;4.67;;;17.20;99.90;;;;;;5056366;28;20257;-63
2023/07/02 03:42:33;;;;;;;5.27;4.60;;;17.00;99.90;;;;;;5056928;28;20209;-62
2023/07/02 03:44:59;;;;;;;4.53;4.13;;;17.00;99.90;;;;;;5055025;28;20263;-61
2023/07/02 03:47:24;;;;;;;5.13;4.73;;;17.00;99.90;;;;;;5058731;28;22706;-61
2023/07/02 03:49:50;;;;;;;5.07;4.30;;;16.90;99.90;;;;;;5058329;28;20198;-61
2023/07/02 03:52:16;;;;;;;3.97;3.67;;;17.10;99.90;;;;;;5056388;28;20268;-62
2023/07/02 03:54:41;;;;;;;4.47;4.07;;;17.10;99.90;;;;;;5058076;28;20637;-63
2023/07/02 03:57:07;;;;;;;5.07;4.67;;;17.00;99.90;;;;;;5058354;28;20202;-61
2023/07/02 03:59:32;;;;;;;4.53;4.13;;;16.80;99.90;;;;;;5058056;28;20217;-61
2023/07/02 04:01:58;;;;;;;7.50;4.43;;;16.90;99.90;;;;;;5058731;28;20194;-61
2023/07/02 04:04:23;;;;;;;7.70;4.40;;;16.90;99.90;;;;;;5058292;28;20281;-61
2023/07/02 04:06:49;;;;;;;4.50;3.77;;;17.00;99.90;;;;;;5054728;28;20202;-61
2023/07/02 04:09:14;;;;;;;5.43;3.90;;;17.00;99.90;;;;;;5058159;28;20301;-61
2023/07/02 04:11:40;;;;;;;5.10;4.53;;;16.90;99.90;;;;;;5058310;28;20206;-61
2023/07/02 04:14:05;;;;;;;3.97;3.67;;;17.00;99.90;;;;;;5057982;28;20225;-61
2023/07/02 04:16:31;;;;;;;6.27;4.30;;;17.00;99.90;;;;;;5057891;28;20194;-61
2023/07/02 04:18:56;;;;;;;4.20;3.90;;;17.00;99.90;;;;;;5056423;28;20677;-62
2023/07/02 04:21:22;;;;;;;6.13;4.23;;;17.00;99.90;;;;;;5057364;28;20202;-63
2023/07/02 04:23:47;;;;;;;4.03;3.63;;;17.00;99.90;;;;;;5057280;28;20197;-63
2023/07/02 04:26:13;;;;;;;5.10;4.73;;;17.10;99.90;;;;;;5060505;28;20216;-63
2023/07/02 04:28:38;;;;;;;4.40;3.97;;;17.00;99.90;;;;;;5054601;28;20587;-63
2023/07/02 04:31:04;;;;;;;5.03;3.70;;;17.10;99.90;;;;;;5057433;28;20226;-63
2023/07/02 04:33:35;;;;;;;4.23;3.83;;;17.10;99.90;;;;;;5056058;28;20205;-62
2023/07/02 04:36:02;;;;;;;4.13;3.60;;;17.10;99.90;;;;;;5059297;28;20275;-63
2023/07/02 04:38:28;;;;;;;3.97;3.67;;;17.00;99.90;;;;;;5058160;28;20198;-62
2023/07/02 04:40:53;;;;;;;4.07;3.70;;;17.00;99.90;;;;;;5055451;28;20218;-63
2023/07/02 04:43:19;;;;;;;6.47;3.67;;;17.00;99.90;;;;;;5055543;28;20194;-62
2023/07/02 04:45:45;;;;;;;4.77;3.67;;;17.10;99.90;;;;;;5057059;28;20198;-62
2023/07/02 04:48:10;;;;;;;4.80;3.90;;;17.00;99.90;;;;;;5058653;28;20203;-64
2023/07/02 04:50:36;;;;;;;5.70;3.70;;;17.00;99.90;;;;;;5054714;28;20186;-62
2023/07/02 04:53:01;;;;;;;5.03;4.00;;;17.00;99.90;;;;;;5057436;28;20621;-62
2023/07/02 04:55:27;;;;;;;6.97;3.80;;;17.20;99.90;;;;;;5055313;28;20206;-62
2023/07/02 04:57:52;;;;;;;5.30;4.40;;;17.20;99.90;;;;;;5057251;28;20743;-61
2023/07/02 05:00:18;;;;;;;4.10;3.80;;;17.20;99.90;;;;;;5057260;28;20248;-61
2023/07/02 05:02:44;;;;;;;4.10;3.27;;;17.20;99.90;;;;;;5057096;28;20619;-62
2023/07/02 05:05:09;;;;;;;4.80;3.60;;;17.30;99.90;;;;;;5056983;28;20202;-61
2023/07/02 05:07:35;;;;;;;5.30;3.50;;;17.20;99.90;;;;;;5055554;28;20285;-63
2023/07/02 05:10:00;;;;;;;5.73;3.50;;;17.30;99.90;;;;;;5047906;28;20198;-62
2023/07/02 05:12:26;;;;;;;3.87;3.47;;;17.40;99.90;;;;;;5057368;28;20210;-63
2023/07/02 05:14:51;;;;;;;5.07;3.17;;;17.50;99.90;;;;;;5057142;28;20221;-64
2023/07/02 05:17:17;;;;;;;5.43;4.83;;;17.40;99.90;;;;;;5057155;28;20661;-63
2023/07/02 05:19:43;;;;;;;4.13;3.73;;;17.40;99.90;;;;;;5057159;28;20251;-64
2023/07/02 05:22:10;;;;;;;4.00;3.63;;;17.30;99.90;;;;;;5054369;28;20285;-63
2023/07/02 05:24:35;;;;;;;5.47;3.70;;;17.30;99.90;;;;;;5061776;28;20736;-63
2023/07/02 05:27:01;;;;;;;3.67;3.47;;;17.40;99.90;;;;;;5063654;28;20213;-63
2023/07/02 05:29:26;;;;;;;5.00;3.20;;;17.30;99.90;;;;;;5056788;28;20190;-62
2023/07/02 05:31:51;;;;;;;4.17;2.87;;;17.30;99.90;;;;;;5060517;28;20214;-63
2023/07/02 05:34:17;;;;;;;2.93;2.70;;;17.40;99.90;;;;;;5064251;28;20844;-63
2023/07/02 05:36:46;;;;;;;3.53;2.80;;;17.50;99.90;;;;;;5062329;28;20202;-63
2023/07/02 05:39:12;;;;;;;3.33;3.13;;;17.50;99.90;;;;;;5055115;28;20259;-61
2023/07/02 05:41:37;;;;;;;2.97;2.73;;;17.60;99.90;;;;;;5061393;28;20202;-61
2023/07/02 05:44:03;;;;;;;3.13;2.90;;;17.60;99.90;;;;;;5066176;28;20418;-60
2023/07/02 05:46:28;;;;;;;4.60;2.90;;;17.50;99.90;;;;;;5067292;28;20280;-62
2023/07/02 05:48:57;;;;;;;3.23;3.00;;;17.60;99.90;;;;;;5062256;28;20211;-62
2023/07/02 05:51:23;;;;;;;2.70;2.50;;;17.70;99.90;;;;;;5060453;28;20235;-61
2023/07/02 05:53:50;;;;;;;3.13;2.93;;;17.70;99.90;;;;;;5063619;28;20625;-61
2023/07/02 05:56:16;;;;;;;4.20;3.30;;;17.70;99.90;;;;;;5061033;28;20207;-61
2023/07/02 05:58:42;;;;;;;4.27;3.10;;;17.80;99.90;;;;;;5064701;28;20202;-63
2023/07/02 06:01:07;;;;;;;2.73;2.50;;;17.90;99.90;;;;;;5061692;28;20185;-64
2023/07/02 06:03:33;;;;;;;3.17;2.80;;;18.00;99.90;;;;;;5063456;28;20531;-64
2023/07/02 06:05:58;;;;;;;3.63;2.70;;;18.10;99.90;;;;;;5064072;28;20195;-65
2023/07/02 06:08:24;;;;;;;3.37;2.77;;;18.10;99.90;;;;;;5061640;28;20901;-64
2023/07/02 06:10:50;;;;;;;3.37;2.57;;;18.10;99.90;;;;;;5063598;28;20193;-71
2023/07/02 06:13:16;;;;;;;5.10;3.33;;;18.20;99.90;;;;;;5071096;28;20198;-74
2023/07/02 06:15:41;;;;;;;5.67;2.50;;;18.30;99.90;;;;;;5060367;28;20457;-77
2023/07/02 06:18:07;;;;;;;5.37;2.47;;;18.40;99.90;;;;;;5048282;28;20286;-73
2023/07/02 06:20:32;;;;;;;4.40;2.80;;;18.40;99.90;;;;;;5051821;28;20194;-73
2023/07/02 06:22:58;;;;;;;3.70;3.20;;;18.30;99.90;;;;;;5051382;28;20194;-75
2023/07/02 06:25:24;;;;;;;2.93;2.63;;;18.50;99.90;;;;;;5054786;28;20198;-73
2023/07/02 06:27:49;;;;;;;2.73;2.57;;;18.50;99.90;;;;;;5047878;28;20263;-74
2023/07/02 06:30:15;;;;;;;2.90;2.50;;;18.40;99.90;;;;;;5051893;28;20211;-72
2023/07/02 06:32:40;;;;;;;3.27;2.60;;;18.30;99.90;;;;;;5051112;28;20285;-74
2023/07/02 06:35:06;;;;;;;5.50;2.87;;;18.30;99.90;;;;;;5052219;28;20353;-69
2023/07/02 06:37:32;;;;;;;6.10;2.97;;;18.20;99.90;;;;;;5051390;28;20266;-69
2023/07/02 06:39:58;;;;;;;3.57;2.30;;;18.30;99.90;;;;;;5046173;28;20230;-69
2023/07/02 06:42:24;;;;;;;4.77;2.80;;;18.40;99.90;;;;;;5048221;28;20209;-70
2023/07/02 06:44:50;;;;;;;4.47;2.33;;;18.30;99.90;;;;;;5047995;28;20307;-70
2023/07/02 06:47:15;;;;;;;4.87;2.57;;;18.40;99.90;;;;;;5049797;28;20311;-71
2023/07/02 06:49:41;;;;;;;3.23;2.53;;;18.60;99.90;;;;;;5049831;28;20251;-77
2023/07/02 06:52:06;;;;;;;3.53;2.60;;;18.80;99.90;;;;;;5047916;28;20208;-72
2023/07/02 06:54:32;;;;;;;4.63;2.30;;;18.80;99.90;;;;;;5044604;28;20215;-74
2023/07/02 06:56:57;;;;;;;3.03;2.67;;;18.90;99.90;;;;;;5048178;28;20306;-75
2023/07/02 06:59:24;;;;;;;3.37;2.93;;;18.80;99.90;;;;;;5047821;28;20209;-78
2023/07/02 07:01:50;;;;;;;7.47;2.90;;;18.80;99.90;;;;;;5052179;28;20222;-70
2023/07/02 07:04:15;;;;;;;3.40;2.40;;;18.90;99.90;;;;;;5051899;28;20222;-76
2023/07/02 07:06:42;;;;;;;3.23;2.47;;;18.90;99.90;;;;;;5052920;28;20291;-70
2023/07/02 07:09:08;;;;;;;3.57;2.63;;;19.00;99.90;;;;;;5061996;28;20197;-70
2023/07/02 07:11:34;;;;;;;5.80;2.63;;;18.90;99.90;;;;;;5056278;28;20645;-70
2023/07/02 07:13:59;;;;;;;5.63;2.57;;;19.00;99.90;;;;;;5058708;28;20210;-71
2023/07/02 07:16:25;;;;;;;3.97;2.70;;;18.90;99.90;;;;;;5055178;28;20281;-70
2023/07/02 07:18:50;;;;;;;4.60;2.33;;;18.90;99.90;;;;;;5039443;28;20205;-69
2023/07/02 07:21:16;;;;;;;5.37;2.63;;;19.00;99.90;;;;;;5047814;28;20263;-71
2023/07/02 07:23:41;;;;;;;5.80;2.90;;;19.00;99.90;;;;;;5058446;28;20203;-70
2023/07/02 07:26:07;;;;;;;5.17;3.20;;;18.90;99.90;;;;;;5058065;28;20258;-70
2023/07/02 07:28:32;;;;;;;3.43;2.83;;;19.00;99.90;;;;;;5054694;28;20206;-74
2023/07/02 07:30:58;;;;;;;3.30;2.80;;;19.00;99.90;;;;;;5046097;28;20266;-78
2023/07/02 07:33:23;;;;;;;4.67;2.90;;;19.10;99.90;;;;;;5048547;28;20321;-73
2023/07/02 07:35:49;;;;;;;3.30;3.00;;;19.20;99.90;;;;;;5050350;28;20236;-78
2023/07/02 07:38:15;;;;;;;5.13;3.03;;;19.40;99.90;;;;;;5048636;28;20206;-72
2023/07/02 07:40:41;;;;;;;2.50;2.27;;;19.30;99.90;;;;;;5047115;28;20307;-74
2023/07/02 07:43:06;;;;;;;6.30;3.30;;;19.30;99.90;;;;;;5050346;28;20203;-76
2023/07/02 07:45:33;;;;;;;5.40;2.90;;;19.30;99.90;;;;;;5056458;28;20202;-69
2023/07/02 07:47:59;;;;;;;10.90;3.10;;;19.30;99.90;;;;;;5054816;28;20204;-73
2023/07/02 07:50:24;;;;;;;2.97;2.67;;;19.10;99.90;;;;;;5046010;28;20677;-70
2023/07/02 07:52:51;;;;;;;3.10;2.47;;;19.10;99.90;;;;;;5049360;28;20208;-75
2023/07/02 07:55:16;;;;;;;3.10;2.50;;;19.10;99.90;;;;;;5043679;28;20380;-75
2023/07/02 07:57:42;;;;;;;3.77;2.63;;;19.00;99.90;;;;;;5052479;28;20278;-73
2023/07/02 08:00:09;;;;;;;8.93;3.20;;;18.90;99.90;;;;;;5060381;28;20193;-73
2023/07/02 08:02:35;;;;;;;5.00;2.73;;;18.90;99.90;;;;;;5055005;28;21431;-70
2023/07/02 08:05:01;;;;;;;3.27;2.80;;;19.00;99.90;;;;;;5057868;28;20204;-70
2023/07/02 08:07:26;;;;;;;3.57;3.03;;;19.00;99.90;;;;;;5057839;28;20687;-69
2023/07/02 08:09:52;;;;;;;4.73;2.60;;;19.00;99.90;;;;;;5055125;28;20300;-70
2023/07/02 08:12:17;;;;;;;3.67;2.67;;;19.00;99.90;;;;;;5058123;28;20385;-74
2023/07/02 08:14:43;;;;;;;4.03;3.67;;;19.00;99.90;;;;;;5058325;28;20215;-73
2023/07/02 08:17:08;;;;;;;4.03;3.00;;;18.80;99.90;;;;;;5058473;28;20561;-74
2023/07/02 08:19:33;;;;;;;4.00;3.07;;;18.80;99.90;;;;;;5056878;28;20196;-69
2023/07/02 08:21:59;;;;;;;4.17;2.90;;;18.70;99.90;;;;;;5058373;28;20195;-71
2023/07/02 08:24:25;;;;;;;3.23;2.93;;;18.80;99.90;;;;;;5057433;28;20544;-70
2023/07/02 08:26:50;;;;;;;3.23;2.93;;;18.80;99.90;;;;;;5057451;28;20206;-73
2023/07/02 08:29:16;;;;;;;4.60;3.73;;;18.80;99.90;;;;;;5057580;28;20224;-78
2023/07/02 08:31:42;;;;;;;3.93;3.10;;;18.90;99.90;;;;;;5058090;28;20210;-76
2023/07/02 08:34:08;;;;;;;5.40;3.10;;;18.80;99.90;;;;;;5057722;28;20214;-76
2023/07/02 08:36:34;;;;;;;5.60;3.77;;;18.80;99.90;;;;;;5061876;28;20198;-74
2023/07/02 08:38:59;;;;;;;3.43;2.97;;;18.80;99.90;;;;;;5058913;28;20887;-74
2023/07/02 08:41:25;;;;;;;3.33;3.03;;;18.90;99.90;;;;;;5066152;28;20198;-76
2023/07/02 08:43:55;;;;;;;5.60;3.63;;;18.90;99.90;;;;;;5067157;28;20202;-75
2023/07/02 08:46:20;;;;;;;4.33;3.73;;;19.00;99.90;;;;;;5067270;28;20644;-78
2023/07/02 08:48:47;;;;;;;7.30;3.70;;;18.90;99.90;;;;;;5060651;28;20213;-70
2023/07/02 08:51:12;;;;;;;3.70;3.20;;;18.80;99.90;;;;;;5062681;28;20213;-75
2023/07/02 08:53:38;;;;;;;4.33;3.87;;;18.80;99.90;;;;;;5064849;28;20203;-72
2023/07/02 08:56:04;;;;;;;4.13;3.50;;;18.90;99.90;;;;;;5063828;28;20561;-73
2023/07/02 08:58:30;;;;;;;6.20;3.33;;;18.90;99.90;;;;;;5064034;28;20288;-70
2023/07/02 09:01:08;;;;;;;4.67;3.80;;;19.10;99.90;;;;;;5063974;28;20204;-70
2023/07/02 09:03:37;;;;;;;4.53;3.57;;;19.10;99.90;;;;;;5064655;28;20207;-69
2023/07/02 09:06:03;;;;;;;6.43;3.97;;;19.00;99.90;;;;;;5066386;28;20210;-71
2023/07/02 09:08:29;;;;;;;7.70;3.70;;;19.00;99.90;;;;;;5065059;28;20228;-70
2023/07/02 09:11:16;;;;;;;7.27;3.57;;;19.20;99.90;;;;;;5064414;28;20207;-71
2023/07/02 09:13:43;;;;;;;10.67;4.17;;;19.40;99.90;;;;;;5066267;28;20205;-71
2023/07/02 09:16:09;;;;;;;5.80;4.20;;;19.30;99.90;;;;;;5066101;28;20193;-72
2023/07/02 09:18:34;;;;;;;5.97;4.47;;;19.20;99.90;;;;;;5064243;28;20195;-75
2023/07/02 09:21:00;;;;;;;6.37;4.20;;;19.30;99.90;;;;;;5064815;28;20677;-75
2023/07/02 09:23:35;;;;;;;7.73;4.23;;;19.30;99.90;;;;;;5064790;28;20207;-76
2023/07/02 09:26:01;;;;;;;8.00;4.63;;;19.40;99.90;;;;;;5062254;28;20251;-74
2023/07/02 09:28:26;;;;;;;5.20;4.20;;;19.40;99.90;;;;;;5064035;28;20231;-75
2023/07/02 09:30:58;;;;;;;7.77;4.33;;;19.30;99.90;;;;;;5063379;28;20198;-74
2023/07/02 09:33:27;;;;;;;8.97;4.13;;;19.30;99.90;;;;;;5060358;28;20271;-75
2023/07/02 09:35:53;;;;;;;8.83;4.43;;;19.30;99.90;;;;;;5064774;28;20243;-75
2023/07/02 09:38:20;;;;;;;4.80;3.77;;;19.30;99.90;;;;;;5059273;28;20336;-75
2023/07/02 09:40:50;;;;;;;7.43;4.17;;;19.40;99.90;;;;;;5058628;28;20632;-76
2023/07/02 09:43:19;;;;;;;9.13;5.13;;;19.50;99.90;;;;;;5063629;28;20327;-72
2023/07/02 09:45:49;;;;;;;8.93;5.20;;;19.60;99.90;;;;;;5065449;28;20464;-72
2023/07/02 09:48:16;;;;;;;8.73;4.60;;;19.70;99.90;;;;;;5064928;28;20238;-73
2023/07/02 09:50:44;;;;;;;10.47;5.30;;;19.60;99.90;;;;;;5053779;28;20213;-73
2023/07/02 09:53:10;;;;;;;10.63;5.23;;;19.50;99.90;;;;;;5050834;28;20657;-70
2023/07/02 09:55:42;;;;;;;6.27;4.80;;;19.50;99.90;;;;;;5051117;28;20252;-69
2023/07/02 09:58:08;;;;;;;9.90;4.93;;;19.90;99.90;;;;;;5048699;28;20198;-70
2023/07/02 10:00:34;;;;;;;8.97;5.50;;;19.70;99.90;;;;;;5056854;28;20222;-70
2023/07/02 10:03:00;;;;;;;9.20;5.67;;;19.70;99.90;;;;;;5050101;28;20310;-70
2023/07/02 10:05:30;;;;;;;12.23;5.43;;;19.90;99.90;;;;;;5049924;28;20674;-70
2023/07/02 10:08:21;;;;;;;13.63;5.63;;;19.60;99.90;;;;;;5050099;28;20254;-70
2023/07/02 10:10:46;;;;;;;8.30;5.40;;;19.50;99.90;;;;;;5048519;28;20198;-70
2023/07/02 10:13:12;;;;;;;11.07;5.67;;;19.70;99.90;;;;;;5051221;28;20215;-68
2023/07/02 10:15:39;;;;;;;7.90;5.27;;;19.80;99.90;;;;;;5049126;28;20310;-68
2023/07/02 10:18:04;;;;;;;8.43;5.57;;;20.00;99.90;;;;;;5053436;28;20229;-67
2023/07/02 10:20:35;;;;;;;9.97;4.77;;;19.90;99.90;;;;;;5052549;28;20196;-67
2023/07/02 10:23:01;;;;;;;10.67;5.80;;;20.10;99.90;;;;;;5053218;28;20196;-68
2023/07/02 10:25:33;;;;;;;12.17;5.17;;;20.20;99.90;;;;;;5066065;28;20207;-71
2023/07/02 10:27:59;;;;;;;10.97;5.83;;;20.10;99.90;;;;;;5062934;28;20211;-70
2023/07/02 10:30:36;;;;;;;9.17;5.77;;;20.10;99.90;;;;;;5062369;28;20203;-68
2023/07/02 10:33:09;;;;;;;9.90;5.87;;;20.30;99.90;;;;;;5063141;28;20981;-68
2023/07/02 10:35:35;;;;;;;11.03;5.73;;;20.00;99.90;;;;;;5070931;28;20203;-69
2023/07/02 10:38:00;;;;;;;11.83;5.40;;;20.20;99.90;;;;;;5063990;28;20751;-73
2023/07/02 10:40:26;;;;;;;8.73;5.63;;;20.50;99.90;;;;;;5065985;28;20220;-72
2023/07/02 10:42:52;;;;;;;7.77;5.43;;;20.60;99.90;;;;;;5064224;28;20330;-71
2023/07/02 10:45:19;;;;;;;8.00;5.47;;;20.20;99.60;;;;;;5064799;28;20204;-71
2023/07/02 10:47:45;;;;;;;10.17;6.17;;;20.30;99.90;;;;;;5064428;28;20670;-72
2023/07/02 10:50:19;;;;;;;8.90;5.10;;;20.40;99.90;;;;;;5064270;28;20276;-71
2023/07/02 10:52:45;;;;;;;10.20;5.90;;;20.50;99.90;;;;;;5062407;28;20204;-70
2023/07/02 10:55:22;;;;;;;7.30;5.10;;;20.50;99.20;;;;;;5064146;28;20216;-70
2023/07/02 10:57:52;;;;;;;13.57;6.00;;;20.60;99.20;;;;;;5053796;28;20207;-71
2023/07/02 11:00:18;;;;;;;11.90;6.77;;;20.50;99.50;;;;;;5050360;28;20231;-70
2023/07/02 11:02:44;;;;;;;12.00;6.57;;;20.50;99.90;;;;;;5050435;28;20205;-73
2023/07/02 11:05:13;;;;;;;9.37;5.70;;;20.30;99.90;;;;;;5049606;28;20204;-69
2023/07/02 11:07:39;;;;;;;15.00;7.63;;;20.20;99.90;;;;;;5049870;28;20222;-67
2023/07/02 11:10:06;;;;;;;12.60;6.27;;;20.10;99.90;;;;;;5048429;28;20227;-69
2023/07/02 11:12:32;;;;;;;10.87;6.27;;;19.90;99.70;;;;;;5052185;28;20211;-69
2023/07/02 11:15:08;;;;;;;9.73;6.00;;;20.20;99.90;;;;;;5050085;28;20216;-69
2023/07/02 11:17:33;;;;;;;11.60;6.07;;;20.40;99.90;;;;;;5047045;28;20417;-69
2023/07/02 11:19:59;;;;;;;8.77;5.63;;;20.40;99.50;;;;;;5049071;28;20559;-69
2023/07/02 11:22:35;;;;;;;14.47;6.40;;;20.40;99.10;;;;;;5049880;28;20216;-69
2023/07/02 11:25:11;;;;;;;15.07;6.30;;;20.80;98.70;;;;;;5048701;28;20198;-69
2023/07/02 11:27:36;;;;;;;10.73;6.30;;;21.00;98.10;;;;;;5046426;28;20199;-69
2023/07/02 11:30:02;;;;;;;12.73;6.10;;;20.90;95.90;;;;;;5048911;28;20208;-69
2023/07/02 11:32:28;;;;;;;12.27;5.70;;;20.90;94.90;;;;;;5049213;28;20208;-70
2023/07/02 11:34:54;;;;;;;9.57;5.73;;;20.90;93.80;;;;;;5048927;28;20686;-71
2023/07/02 11:37:20;;;;;;;11.53;6.53;;;20.50;94.10;;;;;;5048327;28;20708;-74
2023/07/02 11:39:45;;;;;;;10.90;5.60;;;20.70;95.30;;;;;;5049180;28;20222;-74
2023/07/02 11:42:11;;;;;;;8.90;5.60;;;20.80;94.50;;;;;;5049551;28;20223;-69
2023/07/02 11:44:36;;;;;;;13.07;6.87;;;21.20;93.80;;;;;;5050385;28;20571;-74
2023/07/02 11:47:02;;;;;;;10.97;5.87;;;21.70;92.90;;;;;;5050627;28;20196;-72
2023/07/02 11:49:28;;;;;;;8.33;5.57;;;21.70;92.80;;;;;;5048802;28;20193;-71
2023/07/02 11:51:53;;;;;;;7.27;6.40;;;21.90;91.50;;;;;;5046518;28;20228;-70
2023/07/02 11:54:22;;;;;;;8.83;5.60;;;21.90;91.20;;;;;;5049992;28;20212;-73
2023/07/02 11:56:47;;;;;;;9.43;5.03;;;21.90;87.30;;;;;;5047972;28;20205;-73
2023/07/02 11:59:13;;;;;;;8.77;5.50;;;21.40;86.80;;;;;;5056529;28;20565;-75
2023/07/02 12:01:39;;;;;;;10.17;5.67;;;21.30;86.30;;;;;;5065586;28;20289;-69
2023/07/02 12:04:05;;;;;;;8.57;5.63;;;21.80;86.00;;;;;;5060748;28;20232;-75
2023/07/02 12:06:31;;;;;;;8.87;5.70;;;22.00;83.60;;;;;;5055550;28;20198;-74
2023/07/02 12:08:56;;;;;;;9.70;6.03;;;22.00;84.00;;;;;;5047484;28;20676;-71
2023/07/02 12:11:22;;;;;;;9.93;6.17;;;21.80;85.60;;;;;;5048246;28;20202;-75
2023/07/02 12:13:47;;;;;;;12.23;6.87;;;22.20;86.70;;;;;;5048383;28;20671;-74
2023/07/02 12:16:13;;;;;;;6.87;5.73;;;22.60;81.70;;;;;;5049517;28;20189;-75
2023/07/02 12:18:38;;;;;;;13.07;7.23;;;22.60;82.10;;;;;;5054820;28;20272;-72
2023/07/02 12:21:04;;;;;;;9.13;6.67;;;22.60;82.50;;;;;;5057172;28;20841;-70
2023/07/02 12:23:29;;;;;;;10.30;5.27;;;22.70;80.70;;;;;;5048029;28;20581;-70
2023/07/02 12:25:55;;;;;;;10.43;7.10;;;23.00;80.00;;;;;;5047868;28;20213;-69
2023/07/02 12:28:20;;;;;;;8.53;5.40;;;23.00;76.80;;;;;;5048008;28;20207;-69
2023/07/02 12:30:46;;;;;;;12.95;6.30;;;23.30;77.80;;;;;;5053112;28;20246;-69
2023/07/02 12:33:11;;;;;;;7.57;5.53;;;24.00;75.10;;;;;;5042399;28;20641;-69
2023/07/02 12:35:37;;;;;;;9.77;6.13;;;24.20;73.30;;;;;;5051698;28;20213;-69
2023/07/02 12:38:08;;;;;;;7.83;5.40;;;23.30;71.90;;;;;;5057606;28;20228;-74
2023/07/02 12:40:33;;;;;;;10.45;6.70;;;23.50;73.60;;;;;;5050728;28;20246;-73